createdAt,value
2023-04-16T00:00:52.572Z,1.34
2023-04-16T00:01:52.746Z,1.32
2023-04-16T00:02:52.932Z,1.28
2023-04-16T00:03:52.912Z,1.29
2023-04-16T00:04:52.701Z,1.27
2023-04-16T00:05:52.668Z,1.32
2023-04-16T00:06:52.647Z,1.35
2023-04-16T00:07:52.647Z,1.32
2023-04-16T00:08:52.638Z,1.30
2023-04-16T00:09:52.640Z,1.27
2023-04-16T00:10:52.582Z,1.29
2023-04-16T00:11:52.590Z,1.23
2023-04-16T00:12:52.574Z,1.26
2023-04-16T00:13:52.558Z,1.25
2023-04-16T00:14:52.564Z,1.25
2023-04-16T00:15:52.548Z,1.24
2023-04-16T00:16:52.535Z,1.25
2023-04-16T00:17:52.750Z,1.20
2023-04-16T00:18:52.533Z,1.22
2023-04-16T00:19:52.549Z,1.24
2023-04-16T00:20:52.549Z,1.28
2023-04-16T00:21:52.515Z,1.25
2023-04-16T00:22:52.484Z,1.27
2023-04-16T00:23:52.473Z,1.28
2023-04-16T00:24:52.469Z,1.28
2023-04-16T00:25:52.454Z,1.26
2023-04-16T00:26:53.134Z,1.28
2023-04-16T00:27:52.448Z,1.24
2023-04-16T00:28:52.423Z,1.25
2023-04-16T00:29:52.451Z,1.22
2023-04-16T00:30:52.446Z,1.21
2023-04-16T00:31:52.412Z,1.19
2023-04-16T00:32:52.404Z,1.17
2023-04-16T00:33:52.379Z,1.22
2023-04-16T00:34:52.427Z,1.20
2023-04-16T00:35:52.366Z,1.23
2023-04-16T00:36:52.369Z,1.26
2023-04-16T00:37:52.388Z,1.28
2023-04-16T00:38:52.369Z,1.24
2023-04-16T00:39:52.367Z,1.16
2023-04-16T00:40:52.323Z,1.16
2023-04-16T00:41:52.325Z,1.18
2023-04-16T00:42:52.368Z,1.17
2023-04-16T00:43:52.348Z,1.19
2023-04-16T00:44:52.340Z,1.25
2023-04-16T00:45:52.323Z,1.22
2023-04-16T00:46:52.318Z,1.23
2023-04-16T00:47:52.356Z,1.26
2023-04-16T00:48:52.327Z,1.28
2023-04-16T00:49:52.344Z,1.22
2023-04-16T00:50:52.360Z,1.23
2023-04-16T00:51:52.322Z,1.19
2023-04-16T00:52:52.312Z,1.20
2023-04-16T00:53:52.259Z,1.22
2023-04-16T00:54:52.247Z,1.23
2023-04-16T00:55:52.249Z,1.22
2023-04-16T00:56:52.282Z,1.24
2023-04-16T00:57:52.235Z,1.22
2023-04-16T00:58:52.214Z,1.17
2023-04-16T00:59:52.235Z,1.22
2023-04-16T01:00:52.206Z,1.21
2023-04-16T01:01:52.268Z,1.21
2023-04-16T01:02:52.296Z,1.21
2023-04-16T01:03:52.252Z,1.17
2023-04-16T01:04:52.164Z,1.17
2023-04-16T01:05:52.139Z,1.16
2023-04-16T01:06:52.116Z,1.20
2023-04-16T01:07:52.135Z,1.21
2023-04-16T01:08:52.128Z,1.18
2023-04-16T01:09:52.080Z,1.18
2023-04-16T01:10:52.062Z,1.15
2023-04-16T01:11:52.041Z,1.21
2023-04-16T01:12:52.055Z,1.16
2023-04-16T01:13:52.032Z,1.14
2023-04-16T01:14:52.000Z,1.15
2023-04-16T01:15:52.042Z,1.18
2023-04-16T01:16:52.008Z,1.20
2023-04-16T01:17:52.112Z,1.18
2023-04-16T01:18:52.024Z,1.18
2023-04-16T01:19:52.050Z,1.20
2023-04-16T01:20:52.093Z,1.18
2023-04-16T01:21:52.103Z,1.20
2023-04-16T01:22:52.109Z,1.19
2023-04-16T01:23:52.150Z,1.15
2023-04-16T01:24:52.173Z,1.14
2023-04-16T01:25:52.159Z,1.15
2023-04-16T01:26:52.191Z,1.19
2023-04-16T01:27:52.250Z,1.16
2023-04-16T01:28:52.249Z,1.19
2023-04-16T01:29:52.280Z,1.19
2023-04-16T01:30:52.330Z,1.21
2023-04-16T01:31:52.345Z,1.18
2023-04-16T01:32:52.365Z,1.18
2023-04-16T01:33:52.350Z,1.20
2023-04-16T01:34:52.407Z,1.19
2023-04-16T01:35:52.453Z,1.22
2023-04-16T01:36:52.466Z,1.24
2023-04-16T01:37:52.524Z,1.21
2023-04-16T01:38:52.552Z,1.20
2023-04-16T01:39:52.562Z,1.21
2023-04-16T01:40:52.586Z,1.21
2023-04-16T01:41:52.657Z,1.23
2023-04-16T01:42:52.663Z,1.22
2023-04-16T01:43:52.706Z,1.26
2023-04-16T01:44:52.718Z,1.27
2023-04-16T01:45:52.737Z,1.29
2023-04-16T01:46:52.820Z,1.28
2023-04-16T01:47:52.825Z,1.32
2023-04-16T01:48:52.795Z,1.30
2023-04-16T01:49:52.769Z,1.28
2023-04-16T01:50:52.793Z,1.31
2023-04-16T01:51:52.768Z,1.34
2023-04-16T01:52:52.772Z,1.35
2023-04-16T01:53:52.788Z,1.33
2023-04-16T01:54:52.809Z,1.37
2023-04-16T01:55:52.794Z,1.36
2023-04-16T01:56:52.811Z,1.34
2023-04-16T01:57:52.807Z,1.37
2023-04-16T01:58:52.856Z,1.37
2023-04-16T01:59:52.793Z,1.34
2023-04-16T02:00:52.935Z,1.38
2023-04-16T02:01:53.007Z,1.36
2023-04-16T02:02:52.835Z,1.37
2023-04-16T02:03:52.908Z,1.35
2023-04-16T02:04:52.729Z,1.37
2023-04-16T02:05:52.734Z,1.36
2023-04-16T02:06:52.799Z,1.37
2023-04-16T02:07:52.797Z,1.35
2023-04-16T02:08:52.698Z,1.39
2023-04-16T02:09:52.681Z,1.38
2023-04-16T02:10:52.638Z,1.41
2023-04-16T02:11:52.662Z,1.39
2023-04-16T02:12:52.667Z,1.40
2023-04-16T02:13:52.646Z,1.40
2023-04-16T02:14:52.680Z,1.37
2023-04-16T02:15:52.646Z,1.35
2023-04-16T02:16:52.823Z,1.34
2023-04-16T02:17:52.785Z,1.41
2023-04-16T02:18:52.737Z,1.39
2023-04-16T02:19:52.772Z,1.39
2023-04-16T02:20:52.784Z,1.41
2023-04-16T02:21:52.754Z,1.38
2023-04-16T02:22:52.767Z,1.40
2023-04-16T02:23:52.794Z,1.34
2023-04-16T02:24:52.869Z,1.37
2023-04-16T02:25:52.902Z,1.36
2023-04-16T02:26:52.906Z,1.38
2023-04-16T02:27:52.909Z,1.33
2023-04-16T02:28:52.911Z,1.31
2023-04-16T02:29:52.927Z,1.31
2023-04-16T02:30:52.937Z,1.34
2023-04-16T02:31:52.954Z,1.34
2023-04-16T02:32:52.929Z,1.35
2023-04-16T02:33:52.930Z,1.41
2023-04-16T02:34:52.911Z,1.37
2023-04-16T02:35:52.887Z,1.38
2023-04-16T02:36:52.909Z,1.32
2023-04-16T02:37:52.930Z,1.34
2023-04-16T02:38:52.955Z,1.34
2023-04-16T02:39:52.936Z,1.30
2023-04-16T02:40:52.951Z,1.27
2023-04-16T02:41:52.956Z,1.30
2023-04-16T02:42:52.913Z,1.26
2023-04-16T02:43:52.940Z,1.30
2023-04-16T02:44:52.907Z,1.31
2023-04-16T02:45:53.016Z,1.33
2023-04-16T02:46:52.896Z,1.31
2023-04-16T02:47:52.925Z,1.34
2023-04-16T02:48:52.911Z,1.36
2023-04-16T02:49:52.925Z,1.35
2023-04-16T02:50:52.872Z,1.36
2023-04-16T02:51:52.845Z,1.37
2023-04-16T02:52:52.828Z,1.36
2023-04-16T02:53:52.825Z,1.35
2023-04-16T02:54:52.821Z,1.30
2023-04-16T02:55:52.812Z,1.33
2023-04-16T02:56:52.805Z,1.34
2023-04-16T02:57:52.756Z,1.37
2023-04-16T02:58:52.746Z,1.36
2023-04-16T02:59:52.698Z,1.34
2023-04-16T03:00:52.679Z,1.36
2023-04-16T03:01:52.802Z,1.37
2023-04-16T03:02:52.916Z,1.41
2023-04-16T03:03:52.847Z,1.44
2023-04-16T03:04:52.824Z,1.42
2023-04-16T03:05:52.853Z,1.42
2023-04-16T03:06:52.882Z,1.44
2023-04-16T03:07:52.890Z,1.40
2023-04-16T03:08:52.968Z,1.46
2023-04-16T03:09:52.994Z,1.46
2023-04-16T03:10:52.970Z,1.45
2023-04-16T03:11:52.924Z,1.41
2023-04-16T03:12:52.910Z,1.43
2023-04-16T03:13:52.904Z,1.41
2023-04-16T03:14:52.887Z,1.39
2023-04-16T03:15:52.902Z,1.38
2023-04-16T03:16:52.848Z,1.40
2023-04-16T03:17:52.894Z,1.42
2023-04-16T03:18:52.842Z,1.43
2023-04-16T03:19:52.779Z,1.39
2023-04-16T03:20:52.770Z,1.41
2023-04-16T03:21:52.762Z,1.38
2023-04-16T03:22:52.730Z,1.42
2023-04-16T03:23:52.752Z,1.37
2023-04-16T03:24:52.696Z,1.34
2023-04-16T03:25:52.697Z,1.31
2023-04-16T03:26:52.705Z,1.34
2023-04-16T03:27:52.679Z,1.40
2023-04-16T03:28:52.663Z,1.36
2023-04-16T03:29:52.641Z,1.35
2023-04-16T03:30:52.662Z,1.38
2023-04-16T03:31:52.601Z,1.34
2023-04-16T03:32:52.663Z,1.34
2023-04-16T03:33:52.592Z,1.29
2023-04-16T03:34:52.577Z,1.30
2023-04-16T03:35:52.545Z,1.34
2023-04-16T03:36:52.503Z,1.33
2023-04-16T03:37:52.516Z,1.33
2023-04-16T03:38:52.495Z,1.33
2023-04-16T03:39:52.525Z,1.35
2023-04-16T03:40:52.515Z,1.32
2023-04-16T03:41:52.499Z,1.37
2023-04-16T03:42:52.485Z,1.37
2023-04-16T03:43:52.469Z,1.37
2023-04-16T03:44:52.434Z,1.39
2023-04-16T03:45:52.419Z,1.42
2023-04-16T03:46:52.496Z,1.39
2023-04-16T03:47:52.553Z,1.41
2023-04-16T03:48:52.432Z,1.43
2023-04-16T03:49:52.437Z,1.39
2023-04-16T03:50:52.434Z,1.40
2023-04-16T03:51:52.430Z,1.40
2023-04-16T03:52:52.411Z,1.43
2023-04-16T03:53:52.407Z,1.38
2023-04-16T03:54:52.438Z,1.42
2023-04-16T03:55:52.446Z,1.44
2023-04-16T03:56:52.454Z,1.44
2023-04-16T03:57:52.417Z,1.42
2023-04-16T03:58:52.411Z,1.40
2023-04-16T03:59:52.417Z,1.46
2023-04-16T04:00:52.406Z,1.46
2023-04-16T04:01:52.511Z,1.43
2023-04-16T04:02:52.652Z,1.44
2023-04-16T04:03:52.585Z,1.47
2023-04-16T04:04:52.440Z,1.47
2023-04-16T04:05:52.405Z,1.43
2023-04-16T04:06:52.397Z,1.43
2023-04-16T04:07:52.391Z,1.49
2023-04-16T04:08:52.410Z,1.47
2023-04-16T04:09:52.419Z,1.48
2023-04-16T04:10:52.430Z,1.56
2023-04-16T04:11:52.397Z,1.51
2023-04-16T04:12:52.360Z,1.51
2023-04-16T04:13:52.364Z,1.55
2023-04-16T04:14:52.356Z,1.57
2023-04-16T04:15:52.416Z,1.52
2023-04-16T04:16:52.355Z,1.52
2023-04-16T04:17:52.373Z,1.51
2023-04-16T04:18:52.319Z,1.51
2023-04-16T04:20:01.172Z,1.46
2023-04-16T04:20:53.256Z,1.46
2023-04-16T04:21:52.265Z,1.46
2023-04-16T04:22:52.232Z,1.41
2023-04-16T04:23:52.863Z,1.44
2023-04-16T04:24:52.222Z,1.49
2023-04-16T04:25:52.197Z,1.47
2023-04-16T04:26:52.161Z,1.45
2023-04-16T04:27:52.133Z,1.45
2023-04-16T04:28:52.086Z,1.47
2023-04-16T04:29:52.097Z,1.47
2023-04-16T04:30:52.041Z,1.48
2023-04-16T04:31:52.098Z,1.50
2023-04-16T04:32:52.067Z,1.51
2023-04-16T04:33:51.978Z,1.46
2023-04-16T04:34:51.962Z,1.47
2023-04-16T04:35:51.949Z,1.46
2023-04-16T04:36:51.914Z,1.48
2023-04-16T04:37:51.852Z,1.48
2023-04-16T04:38:51.853Z,1.46
2023-04-16T04:39:51.855Z,1.48
2023-04-16T04:40:51.812Z,1.48
2023-04-16T04:41:51.770Z,1.46
2023-04-16T04:42:51.736Z,1.50
2023-04-16T04:43:51.750Z,1.44
2023-04-16T04:44:51.727Z,1.47
2023-04-16T04:45:51.712Z,1.44
2023-04-16T04:46:51.699Z,1.44
2023-04-16T04:47:51.729Z,1.43
2023-04-16T04:48:51.670Z,1.39
2023-04-16T04:49:51.646Z,1.41
2023-04-16T04:50:51.630Z,1.37
2023-04-16T04:51:51.620Z,1.37
2023-04-16T04:52:51.631Z,1.39
2023-04-16T04:53:51.647Z,1.39
2023-04-16T04:54:51.656Z,1.39
2023-04-16T04:55:54.182Z,1.40
2023-04-16T04:56:52.650Z,1.40
2023-04-16T04:57:51.594Z,1.40
2023-04-16T04:58:51.557Z,1.40
2023-04-16T04:59:51.528Z,1.37
2023-04-16T05:00:51.546Z,1.34
2023-04-16T05:01:51.507Z,1.36
2023-04-16T05:02:51.517Z,1.36
2023-04-16T05:03:51.576Z,1.35
2023-04-16T05:04:51.455Z,1.36
2023-04-16T05:05:51.381Z,1.36
2023-04-16T05:06:51.362Z,1.37
2023-04-16T05:07:51.352Z,1.37
2023-04-16T05:08:51.360Z,1.36
2023-04-16T05:09:51.334Z,1.37
2023-04-16T05:10:51.311Z,1.37
2023-04-16T05:11:51.268Z,1.33
2023-04-16T05:12:51.259Z,1.38
2023-04-16T05:13:51.217Z,1.35
2023-04-16T05:14:51.225Z,1.34
2023-04-16T05:15:51.208Z,1.35
2023-04-16T05:16:51.270Z,1.36
2023-04-16T05:17:51.279Z,1.37
2023-04-16T05:18:51.234Z,1.30
2023-04-16T05:19:51.239Z,1.30
2023-04-16T05:20:51.260Z,1.34
2023-04-16T05:21:51.239Z,1.31
2023-04-16T05:22:51.288Z,1.30
2023-04-16T05:23:51.262Z,1.31
2023-04-16T05:24:51.270Z,1.29
2023-04-16T05:25:51.294Z,1.31
2023-04-16T05:26:51.327Z,1.32
2023-04-16T05:27:51.335Z,1.28
2023-04-16T05:28:51.339Z,1.31
2023-04-16T05:29:51.346Z,1.31
2023-04-16T05:30:51.369Z,1.31
2023-04-16T05:31:51.345Z,1.28
2023-04-16T05:32:51.388Z,1.28
2023-04-16T05:33:51.339Z,1.30
2023-04-16T05:34:51.341Z,1.31
2023-04-16T05:35:51.347Z,1.27
2023-04-16T05:36:51.342Z,1.27
2023-04-16T05:37:51.324Z,1.27
2023-04-16T05:38:51.312Z,1.28
2023-04-16T05:39:51.311Z,1.31
2023-04-16T05:40:51.293Z,1.31
2023-04-16T05:41:51.270Z,1.31
2023-04-16T05:42:51.290Z,1.32
2023-04-16T05:43:51.297Z,1.31
2023-04-16T05:44:51.310Z,1.33
2023-04-16T05:45:51.347Z,1.32
2023-04-16T05:46:51.248Z,1.36
2023-04-16T05:47:51.281Z,1.36
2023-04-16T05:48:51.265Z,1.37
2023-04-16T05:49:51.256Z,1.36
2023-04-16T05:50:51.278Z,1.37
2023-04-16T05:51:51.305Z,1.34
2023-04-16T05:52:51.260Z,1.39
2023-04-16T05:53:51.299Z,1.34
2023-04-16T05:54:51.288Z,1.35
2023-04-16T05:55:51.325Z,1.33
2023-04-16T05:56:51.354Z,1.32
2023-04-16T05:57:51.330Z,1.31
2023-04-16T05:58:51.369Z,1.31
2023-04-16T05:59:51.457Z,1.33
2023-04-16T06:00:51.412Z,1.36
2023-04-16T06:01:51.416Z,1.35
2023-04-16T06:02:51.541Z,1.33
2023-04-16T06:03:51.464Z,1.34
2023-04-16T06:04:51.387Z,1.31
2023-04-16T06:05:51.480Z,1.34
2023-04-16T06:06:51.368Z,1.36
2023-04-16T06:07:51.397Z,1.36
2023-04-16T06:08:51.362Z,1.32
2023-04-16T06:09:51.401Z,1.33
2023-04-16T06:10:51.419Z,1.37
2023-04-16T06:11:51.391Z,1.37
2023-04-16T06:12:51.434Z,1.33
2023-04-16T06:13:51.379Z,1.29
2023-04-16T06:14:51.397Z,1.37
2023-04-16T06:15:51.396Z,1.31
2023-04-16T06:16:51.388Z,1.33
2023-04-16T06:17:51.384Z,1.32
2023-04-16T06:18:51.337Z,1.33
2023-04-16T06:19:51.367Z,1.34
2023-04-16T06:20:51.382Z,1.34
2023-04-16T06:21:51.371Z,1.32
2023-04-16T06:22:51.371Z,1.29
2023-04-16T06:23:51.339Z,1.33
2023-04-16T06:24:51.390Z,1.34
2023-04-16T06:25:51.373Z,1.30
2023-04-16T06:26:51.375Z,1.30
2023-04-16T06:27:51.412Z,1.34
2023-04-16T06:28:51.412Z,1.33
2023-04-16T06:29:51.401Z,1.31
2023-04-16T06:30:51.401Z,1.28
2023-04-16T06:31:51.442Z,1.30
2023-04-16T06:32:51.432Z,1.29
2023-04-16T06:33:51.392Z,1.29
2023-04-16T06:34:51.387Z,1.30
2023-04-16T06:35:51.362Z,1.26
2023-04-16T06:36:51.347Z,1.29
2023-04-16T06:37:51.365Z,1.31
2023-04-16T06:38:51.341Z,1.32
2023-04-16T06:39:51.375Z,1.30
2023-04-16T06:40:51.378Z,1.29
2023-04-16T06:41:51.382Z,1.30
2023-04-16T06:42:51.385Z,1.31
2023-04-16T06:43:51.403Z,1.37
2023-04-16T06:44:51.429Z,1.31
2023-04-16T06:45:51.425Z,1.33
2023-04-16T06:46:51.452Z,1.31
2023-04-16T06:47:51.493Z,1.33
2023-04-16T06:48:51.450Z,1.31
2023-04-16T06:49:51.455Z,1.32
2023-04-16T06:50:51.451Z,1.31
2023-04-16T06:51:51.434Z,1.33
2023-04-16T06:52:51.476Z,1.32
2023-04-16T06:53:51.471Z,1.35
2023-04-16T06:54:51.495Z,1.37
2023-04-16T06:55:51.475Z,1.35
2023-04-16T06:56:51.475Z,1.37
2023-04-16T06:57:51.476Z,1.38
2023-04-16T06:58:51.473Z,1.40
2023-04-16T06:59:51.523Z,1.38
2023-04-16T07:00:51.604Z,1.37
2023-04-16T07:01:51.605Z,1.35
2023-04-16T07:02:51.676Z,1.36
2023-04-16T07:03:51.685Z,1.40
2023-04-16T07:04:51.536Z,1.40
2023-04-16T07:05:51.585Z,1.38
2023-04-16T07:06:51.573Z,1.36
2023-04-16T07:07:51.577Z,1.44
2023-04-16T07:08:51.605Z,1.42
2023-04-16T07:09:51.619Z,1.41
2023-04-16T07:10:51.657Z,1.38
2023-04-16T07:11:51.707Z,1.43
2023-04-16T07:12:51.746Z,1.43
2023-04-16T07:13:51.752Z,1.43
2023-04-16T07:14:51.756Z,1.40
2023-04-16T07:15:51.767Z,1.42
2023-04-16T07:16:51.927Z,1.36
2023-04-16T07:17:51.840Z,1.41
2023-04-16T07:18:51.847Z,1.40
2023-04-16T07:19:51.897Z,1.35
2023-04-16T07:20:51.908Z,1.38
2023-04-16T07:21:51.919Z,1.39
2023-04-16T07:22:51.986Z,1.40
2023-04-16T07:23:52.015Z,1.43
2023-04-16T07:24:52.066Z,1.39
2023-04-16T07:25:52.064Z,1.41
2023-04-16T07:26:52.109Z,1.42
2023-04-16T07:27:52.154Z,1.41
2023-04-16T07:28:52.139Z,1.44
2023-04-16T07:29:52.208Z,1.43
2023-04-16T07:30:52.208Z,1.42
2023-04-16T07:31:52.310Z,1.46
2023-04-16T07:32:52.337Z,1.44
2023-04-16T07:33:52.289Z,1.42
2023-04-16T07:34:52.344Z,1.46
2023-04-16T07:35:52.380Z,1.42
2023-04-16T07:36:52.424Z,1.42
2023-04-16T07:37:52.477Z,1.38
2023-04-16T07:38:52.471Z,1.40
2023-04-16T07:39:52.546Z,1.37
2023-04-16T07:40:52.523Z,1.41
2023-04-16T07:41:52.577Z,1.41
2023-04-16T07:42:52.574Z,1.40
2023-04-16T07:43:52.640Z,1.41
2023-04-16T07:44:52.637Z,1.42
2023-04-16T07:45:52.698Z,1.41
2023-04-16T07:46:52.825Z,1.41
2023-04-16T07:47:52.751Z,1.43
2023-04-16T07:48:52.740Z,1.38
2023-04-16T07:49:53.355Z,1.40
2023-04-16T07:50:52.794Z,1.41
2023-04-16T07:51:52.821Z,1.38
2023-04-16T07:52:52.833Z,1.37
2023-04-16T07:53:52.855Z,1.39
2023-04-16T07:54:52.850Z,1.40
2023-04-16T07:55:52.891Z,1.37
2023-04-16T07:56:52.924Z,1.39
2023-04-16T07:57:52.949Z,1.40
2023-04-16T07:58:52.937Z,1.41
2023-04-16T07:59:52.975Z,1.37
2023-04-16T08:00:52.985Z,1.40
2023-04-16T08:01:53.057Z,1.42
2023-04-16T08:02:53.224Z,1.42
2023-04-16T08:03:53.192Z,1.42
2023-04-16T08:04:53.224Z,1.37
2023-04-16T08:05:53.151Z,1.35
2023-04-16T08:06:53.180Z,1.32
2023-04-16T08:07:53.166Z,1.31
2023-04-16T08:08:53.159Z,1.30
2023-04-16T08:09:53.162Z,1.33
2023-04-16T08:10:53.180Z,1.32
2023-04-16T08:11:53.179Z,1.31
2023-04-16T08:12:53.204Z,1.32
2023-04-16T08:13:53.202Z,1.33
2023-04-16T08:14:53.249Z,1.32
2023-04-16T08:15:53.337Z,1.32
2023-04-16T08:16:53.305Z,1.33
2023-04-16T08:17:53.412Z,1.36
2023-04-16T08:18:53.299Z,1.32
2023-04-16T08:19:53.333Z,1.35
2023-04-16T08:20:53.329Z,1.35
2023-04-16T08:21:53.348Z,1.34
2023-04-16T08:22:53.354Z,1.34
2023-04-16T08:23:53.385Z,1.36
2023-04-16T08:24:53.456Z,1.34
2023-04-16T08:25:53.395Z,1.30
2023-04-16T08:26:53.479Z,1.26
2023-04-16T08:27:53.502Z,1.28
2023-04-16T08:28:53.456Z,1.30
2023-04-16T08:29:53.462Z,1.27
2023-04-16T08:30:53.473Z,1.30
2023-04-16T08:31:53.486Z,1.31
2023-04-16T08:32:53.532Z,1.30
2023-04-16T08:33:53.442Z,1.28
2023-04-16T08:34:53.434Z,1.28
2023-04-16T08:35:53.438Z,1.26
2023-04-16T08:36:53.418Z,1.30
2023-04-16T08:37:53.458Z,1.26
2023-04-16T08:38:53.461Z,1.30
2023-04-16T08:39:53.509Z,1.30
2023-04-16T08:40:53.523Z,1.31
2023-04-16T08:41:53.593Z,1.33
2023-04-16T08:42:53.619Z,1.30
2023-04-16T08:43:53.668Z,1.32
2023-04-16T08:44:53.729Z,1.32
2023-04-16T08:45:53.741Z,1.33
2023-04-16T08:46:53.846Z,1.35
2023-04-16T08:47:53.796Z,1.34
2023-04-16T08:48:53.835Z,1.35
2023-04-16T08:49:53.806Z,1.35
2023-04-16T08:50:53.864Z,1.33
2023-04-16T08:51:53.873Z,1.32
2023-04-16T08:52:53.930Z,1.31
2023-04-16T08:53:53.947Z,1.31
2023-04-16T08:54:56.559Z,1.31
2023-04-16T08:55:53.969Z,1.32
2023-04-16T08:56:53.988Z,1.31
2023-04-16T08:57:53.936Z,1.31
2023-04-16T08:58:53.854Z,1.30
2023-04-16T08:59:53.865Z,1.30
2023-04-16T09:00:53.814Z,1.32
2023-04-16T09:01:53.887Z,1.30
2023-04-16T09:02:53.941Z,1.28
2023-04-16T09:03:53.901Z,1.29
2023-04-16T09:04:53.807Z,1.33
2023-04-16T09:05:53.688Z,1.36
2023-04-16T09:06:53.661Z,1.35
2023-04-16T09:07:53.647Z,1.34
2023-04-16T09:08:53.610Z,1.35
2023-04-16T09:09:53.582Z,1.32
2023-04-16T09:10:53.566Z,1.33
2023-04-16T09:11:53.520Z,1.29
2023-04-16T09:12:53.485Z,1.29
2023-04-16T09:13:53.484Z,1.30
2023-04-16T09:14:53.443Z,1.31
2023-04-16T09:15:53.450Z,1.27
2023-04-16T09:16:53.452Z,1.26
2023-04-16T09:17:53.422Z,1.22
2023-04-16T09:18:53.364Z,1.24
2023-04-16T09:19:53.331Z,1.25
2023-04-16T09:20:53.328Z,1.22
2023-04-16T09:21:53.296Z,1.23
2023-04-16T09:22:53.276Z,1.22
2023-04-16T09:23:53.213Z,1.26
2023-04-16T09:24:53.197Z,1.27
2023-04-16T09:25:53.167Z,1.26
2023-04-16T09:26:53.212Z,1.31
2023-04-16T09:27:53.121Z,1.25
2023-04-16T09:28:53.114Z,1.27
2023-04-16T09:29:53.122Z,1.26
2023-04-16T09:30:53.051Z,1.32
2023-04-16T09:31:53.124Z,1.27
2023-04-16T09:32:53.082Z,1.28
2023-04-16T09:33:52.997Z,1.29
2023-04-16T09:34:52.953Z,1.33
2023-04-16T09:35:52.986Z,1.31
2023-04-16T09:36:52.931Z,1.29
2023-04-16T09:37:52.897Z,1.29
2023-04-16T09:38:53.647Z,1.31
2023-04-16T09:39:52.916Z,1.31
2023-04-16T09:40:52.962Z,1.25
2023-04-16T09:41:53.002Z,1.26
2023-04-16T09:42:53.016Z,1.23
2023-04-16T09:43:53.041Z,1.16
2023-04-16T09:44:53.059Z,1.20
2023-04-16T09:45:53.136Z,1.20
2023-04-16T09:46:53.154Z,1.21
2023-04-16T09:47:53.199Z,1.19
2023-04-16T09:48:53.189Z,1.16
2023-04-16T09:49:53.232Z,1.18
2023-04-16T09:50:53.248Z,1.20
2023-04-16T09:51:53.277Z,1.19
2023-04-16T09:52:53.279Z,1.20
2023-04-16T09:53:53.323Z,1.19
2023-04-16T09:54:53.378Z,1.20
2023-04-16T09:55:53.411Z,1.24
2023-04-16T09:56:53.390Z,1.26
2023-04-16T09:57:53.406Z,1.25
2023-04-16T09:58:53.451Z,1.31
2023-04-16T09:59:53.455Z,1.30
2023-04-16T10:00:53.472Z,1.26
2023-04-16T10:01:57.217Z,1.24
2023-04-16T10:02:54.526Z,1.24
2023-04-16T10:03:53.695Z,1.21
2023-04-16T10:04:53.585Z,1.21
2023-04-16T10:05:53.434Z,1.18
2023-04-16T10:06:53.432Z,1.17
2023-04-16T10:07:53.366Z,1.16
2023-04-16T10:08:53.340Z,1.12
2023-04-16T10:09:53.356Z,1.12
2023-04-16T10:10:53.301Z,1.08
2023-04-16T10:11:53.277Z,1.07
2023-04-16T10:12:53.274Z,1.06
2023-04-16T10:13:53.296Z,1.15
2023-04-16T10:14:53.338Z,1.09
2023-04-16T10:15:53.383Z,1.05
2023-04-16T10:16:53.475Z,1.05
2023-04-16T10:17:53.510Z,1.05
2023-04-16T10:18:53.510Z,1.04
2023-04-16T10:19:53.584Z,1.03
2023-04-16T10:20:53.603Z,1.02
2023-04-16T10:21:53.610Z,1.02
2023-04-16T10:22:53.637Z,1.00
2023-04-16T10:23:53.692Z,0.92
2023-04-16T10:24:53.709Z,0.93
2023-04-16T10:25:54.630Z,0.91
2023-04-16T10:26:53.936Z,0.96
2023-04-16T10:27:53.986Z,0.97
2023-04-16T10:28:53.972Z,1.00
2023-04-16T10:29:53.979Z,1.02
2023-04-16T10:30:54.099Z,1.01
2023-04-16T10:31:54.072Z,1.03
2023-04-16T10:32:54.095Z,0.99
2023-04-16T10:33:54.102Z,0.97
2023-04-16T10:34:54.140Z,1.02
2023-04-16T10:36:06.754Z,0.97
2023-04-16T10:36:55.121Z,0.98
2023-04-16T10:37:54.097Z,0.98
2023-04-16T10:38:54.088Z,1.00
2023-04-16T10:39:54.061Z,1.03
2023-04-16T10:40:54.079Z,1.04
2023-04-16T10:41:54.014Z,1.10
2023-04-16T10:42:53.943Z,1.09
2023-04-16T10:43:53.966Z,1.13
2023-04-16T10:44:53.933Z,1.13
2023-04-16T10:45:53.891Z,1.12
2023-04-16T10:46:53.895Z,1.15
2023-04-16T10:47:54.005Z,1.14
2023-04-16T10:48:53.974Z,1.13
2023-04-16T10:49:53.967Z,1.13
2023-04-16T10:50:54.048Z,1.10
2023-04-16T10:51:54.023Z,1.12
2023-04-16T10:52:54.090Z,1.07
2023-04-16T10:53:54.101Z,1.06
2023-04-16T10:54:54.113Z,1.07
2023-04-16T10:55:54.176Z,1.08
2023-04-16T10:56:54.229Z,1.10
2023-04-16T10:57:54.239Z,1.12
2023-04-16T10:58:54.274Z,1.13
2023-04-16T10:59:54.302Z,1.13
2023-04-16T11:00:54.273Z,1.12
2023-04-16T11:01:54.444Z,1.13
2023-04-16T11:02:54.547Z,1.09
2023-04-16T11:03:54.602Z,1.10
2023-04-16T11:04:54.514Z,1.08
2023-04-16T11:05:54.457Z,1.04
2023-04-16T11:06:54.477Z,1.03
2023-04-16T11:07:54.529Z,0.99
2023-04-16T11:08:55.454Z,0.97
2023-04-16T11:09:54.554Z,0.98
2023-04-16T11:10:54.609Z,0.98
2023-04-16T11:11:54.607Z,0.96
2023-04-16T11:12:54.605Z,0.97
2023-04-16T11:13:54.619Z,1.02
2023-04-16T11:14:54.665Z,1.01
2023-04-16T11:15:54.765Z,1.04
2023-04-16T11:16:54.679Z,1.05
2023-04-16T11:17:54.784Z,1.05
2023-04-16T11:18:56.333Z,1.07
2023-04-16T11:19:54.806Z,1.09
2023-04-16T11:20:54.802Z,1.10
2023-04-16T11:21:54.839Z,1.09
2023-04-16T11:22:54.870Z,1.14
2023-04-16T11:23:54.862Z,1.13
2023-04-16T11:24:54.889Z,1.15
2023-04-16T11:25:54.908Z,1.15
2023-04-16T11:26:54.969Z,1.16
2023-04-16T11:27:55.031Z,1.18
2023-04-16T11:28:55.021Z,1.21
2023-04-16T11:29:54.990Z,1.20
2023-04-16T11:30:55.039Z,1.21
2023-04-16T11:31:55.172Z,1.23
2023-04-16T11:32:55.114Z,1.23
2023-04-16T11:33:55.101Z,1.23
2023-04-16T11:34:55.155Z,1.20
2023-04-16T11:35:55.170Z,1.23
2023-04-16T11:36:55.210Z,1.23
2023-04-16T11:37:55.234Z,1.20
2023-04-16T11:38:55.250Z,1.21
2023-04-16T11:39:55.290Z,1.19
2023-04-16T11:40:55.338Z,1.21
2023-04-16T11:41:55.347Z,1.24
2023-04-16T11:42:55.361Z,1.25
2023-04-16T11:43:55.367Z,1.22
2023-04-16T11:44:55.409Z,1.18
2023-04-16T11:45:55.437Z,1.22
2023-04-16T11:46:55.514Z,1.23
2023-04-16T11:47:55.643Z,1.23
2023-04-16T11:48:55.623Z,1.24
2023-04-16T11:49:55.586Z,1.22
2023-04-16T11:50:55.578Z,1.21
2023-04-16T11:51:55.625Z,1.21
2023-04-16T11:52:55.689Z,1.23
2023-04-16T11:53:55.704Z,1.22
2023-04-16T11:54:55.703Z,1.22
2023-04-16T11:55:55.774Z,1.26
2023-04-16T11:56:55.803Z,1.23
2023-04-16T11:57:55.841Z,1.22
2023-04-16T11:58:55.858Z,1.24
2023-04-16T12:00:01.977Z,1.16
2023-04-16T12:00:56.851Z,1.17
2023-04-16T12:01:56.019Z,1.17
2023-04-16T12:02:56.124Z,1.18
2023-04-16T12:03:55.950Z,1.17
2023-04-16T12:04:55.814Z,1.17
2023-04-16T12:05:55.693Z,1.18
2023-04-16T12:06:55.670Z,1.11
2023-04-16T12:07:55.654Z,1.11
2023-04-16T12:08:55.598Z,1.11
2023-04-16T12:09:55.589Z,1.12
2023-04-16T12:10:55.669Z,1.14
2023-04-16T12:11:55.668Z,1.18
2023-04-16T12:12:55.650Z,1.16
2023-04-16T12:13:55.676Z,1.18
2023-04-16T12:14:55.755Z,1.19
2023-04-16T12:15:55.750Z,1.19
2023-04-16T12:16:55.838Z,1.20
2023-04-16T12:17:55.855Z,1.19
2023-04-16T12:18:55.843Z,1.20
2023-04-16T12:19:55.895Z,1.15
2023-04-16T12:20:55.922Z,1.17
2023-04-16T12:21:55.935Z,1.19
2023-04-16T12:22:56.009Z,1.15
2023-04-16T12:23:55.970Z,1.16
2023-04-16T12:24:56.044Z,1.16
2023-04-16T12:25:56.063Z,1.10
2023-04-16T12:26:56.116Z,1.13
2023-04-16T12:27:56.123Z,1.14
2023-04-16T12:28:56.122Z,1.14
2023-04-16T12:29:56.183Z,1.13
2023-04-16T12:30:56.242Z,1.11
2023-04-16T12:31:56.197Z,1.16
2023-04-16T12:32:59.059Z,1.15
2023-04-16T12:33:56.187Z,1.15
2023-04-16T12:34:56.167Z,1.18
2023-04-16T12:35:56.103Z,1.21
2023-04-16T12:36:56.079Z,1.24
2023-04-16T12:37:56.035Z,1.16
2023-04-16T12:38:56.024Z,1.16
2023-04-16T12:39:55.985Z,1.17
2023-04-16T12:40:55.954Z,1.23
2023-04-16T12:41:55.956Z,1.19
2023-04-16T12:42:55.916Z,1.18
2023-04-16T12:43:55.872Z,1.22
2023-04-16T12:44:55.851Z,1.22
2023-04-16T12:45:55.881Z,1.19
2023-04-16T12:46:55.799Z,1.21
2023-04-16T12:47:55.862Z,1.18
2023-04-16T12:48:55.753Z,1.20
2023-04-16T12:49:55.719Z,1.23
2023-04-16T12:50:55.689Z,1.21
2023-04-16T12:51:55.665Z,1.18
2023-04-16T12:52:55.679Z,1.16
2023-04-16T12:53:55.585Z,1.14
2023-04-16T12:54:55.579Z,1.14
2023-04-16T12:55:55.559Z,1.12
2023-04-16T12:56:55.535Z,1.14
2023-04-16T12:57:55.466Z,1.18
2023-04-16T12:58:55.442Z,1.19
2023-04-16T12:59:55.436Z,1.19
2023-04-16T13:00:55.405Z,1.19
2023-04-16T13:01:55.517Z,1.21
2023-04-16T13:02:55.416Z,1.21
2023-04-16T13:03:55.710Z,1.22
2023-04-16T13:04:55.294Z,1.19
2023-04-16T13:05:55.258Z,1.18
2023-04-16T13:06:55.234Z,1.19
2023-04-16T13:07:55.206Z,1.16
2023-04-16T13:08:55.153Z,1.13
2023-04-16T13:09:55.147Z,1.16
2023-04-16T13:10:55.116Z,1.10
2023-04-16T13:11:55.095Z,1.08
2023-04-16T13:12:55.090Z,1.06
2023-04-16T13:13:55.061Z,1.05
2023-04-16T13:14:55.024Z,1.10
2023-04-16T13:15:55.045Z,1.09
2023-04-16T13:16:54.977Z,1.07
2023-04-16T13:17:54.983Z,1.08
2023-04-16T13:18:55.007Z,1.13